A- A+ FrançaisEnglishEspañol中国

最近的 UKBB Kiev BorispolLFCF Figeac-LivernonGOOY Dakar YoffEPWA Warsaw OkecieLGBL Nea AnchialosLSZQ Bressaucourt

飞行员的航空天气,使用METAR(气象机场报告)进行的飞行准备和TAF(终端机场预报:针对以下情况的短期天气预报)航空)。 以及其他资源,例如VAC(目视进近图)和NOTAM(通知飞行员)以进行预试飞行.

METAR, TAF, VAC, NOTAM Houston Southwest机场 (美国) / OACI KAXH

它位于附近 Houston, Arcola 在 1 km, Sienna Plantation 在 3.7 km, Fresno 在 4.6 km, Iowa Colony 在 6.2 km, Manvel 在 12 km, Fifth Street 在 13 km, Missouri City 在 14 km, Stafford 在 15 km, Brookside Village 在 17 km, Rosharon 在 17 km,

机场的高度为 Houston Southwest机场的

21 m = 69 ft

跑道 Houston Southwest机场的

附近的机场Houston Southwest机场的

目前的天气 Houston Southwest机场的 - KAXH

ciel couvert
31°C

Vent 0 km/h

可提供5天天气预报 Arcola 在 1 km, Sienna Plantation 在 3.7 km, Fresno 在 4.6 km, Iowa Colony 在 6.2 km, Manvel 在 12 km, Fifth Street 在 13 km, Missouri City 在 14 km, Stafford 在 15 km, Brookside Village 在 17 km, Rosharon 在 17 km,

METAR Houston Southwest机场的 - KAXH

KAXH 181610Z AUTO 00000KT 10SM CLR 31/20 A3002 RMK AO2 T03140204

Houston Southwest机场METAR解码 (美国)

KAXH机场发行的METAR日期2020年08月18日至16:10 GMT. 这是一个自动生成的METAR, 警告:此METAR已过期, 已于 42 天 15 小时 14 分钟.

可见度为16.1 km = 10 sm.

温度为31°C = 88 °F 露点为20°C = 68 °F 。 这相当于52%的相对湿度。.

QNH是1017 hPa = 30.03 inHg

的风0 kt = 0 km/h, 风向为0°.

天空晴朗

备注 AO2 T03140204

TAF Houston Southwest机场的 - KAXH

没有TAF

Houston Southwest机场的NOTAM

提供的NOTAM不能保证其时事性。 在将其用于飞行准备或在飞行期间使用之前,飞行员是唯一负责验证其有效性的人员。

没有通知

数据源